sensor_id;sensor_type;location;lat;lon;timestamp;pressure;altitude;pressure_sealevel;temperature;humidity
52625;BME280;38519;52.540;13.410;2023-08-08T00:01:10;45458.22;;;-146.17;99.14
52625;BME280;38519;52.540;13.410;2023-08-08T00:03:35;45454.28;;;-146.17;99.10
52625;BME280;38519;52.540;13.410;2023-08-08T00:06:01;45466.13;;;-146.17;99.21
52625;BME280;38519;52.540;13.410;2023-08-08T00:08:26;45430.56;;;-146.17;99.38
52625;BME280;38519;52.540;13.410;2023-08-08T00:10:51;45456.25;;;-146.17;99.85
52625;BME280;38519;52.540;13.410;2023-08-08T00:13:16;45468.09;;;-146.17;99.99
52625;BME280;38519;52.540;13.410;2023-08-08T00:15:42;45470.09;;;-146.17;100.00
52625;BME280;38519;52.540;13.410;2023-08-08T00:18:07;45472.06;;;-146.17;99.98
52625;BME280;38519;52.540;13.410;2023-08-08T00:20:32;45497.75;;;-146.17;100.00
52625;BME280;38519;52.540;13.410;2023-08-08T00:22:58;45448.34;;;-146.17;100.00
52625;BME280;38519;52.540;13.410;2023-08-08T00:25:23;45511.59;;;-146.17;100.00
52625;BME280;38519;52.540;13.410;2023-08-08T00:27:49;45481.94;;;-146.17;100.00
52625;BME280;38519;52.540;13.410;2023-08-08T00:30:14;45493.81;;;-146.17;100.00
52625;BME280;38519;52.540;13.410;2023-08-08T00:32:42;45424.63;;;-146.17;100.00
52625;BME280;38519;52.540;13.410;2023-08-08T00:35:07;45501.72;;;-146.17;100.00
52625;BME280;38519;52.540;13.410;2023-08-08T00:37:32;45460.19;;;-146.17;100.00
52625;BME280;38519;52.540;13.410;2023-08-08T00:39:58;45495.78;;;-146.17;100.00
52625;BME280;38519;52.540;13.410;2023-08-08T00:42:23;45468.09;;;-146.17;100.00
52625;BME280;38519;52.540;13.410;2023-08-08T00:44:48;45468.09;;;-146.17;100.00
52625;BME280;38519;52.540;13.410;2023-08-08T00:47:14;45464.16;;;-146.17;100.00
52625;BME280;38519;52.540;13.410;2023-08-08T00:49:39;45470.09;;;-146.17;100.00
52625;BME280;38519;52.540;13.410;2023-08-08T00:52:05;45474.03;;;-146.17;100.00
52625;BME280;38519;52.540;13.410;2023-08-08T00:54:31;45470.09;;;-146.17;100.00
52625;BME280;38519;52.540;13.410;2023-08-08T00:56:56;45462.19;;;-146.17;100.00
52625;BME280;38519;52.540;13.410;2023-08-08T00:59:21;45483.91;;;-146.17;100.00
52625;BME280;38519;52.540;13.410;2023-08-08T01:01:48;45487.88;;;-146.17;100.00
52625;BME280;38519;52.540;13.410;2023-08-08T01:04:13;45476.00;;;-146.17;100.00
52625;BME280;38519;52.540;13.410;2023-08-08T01:06:39;45485.91;;;-146.17;100.00
52625;BME280;38519;52.540;13.410;2023-08-08T01:09:09;45483.91;;;-146.17;100.00
52625;BME280;38519;52.540;13.410;2023-08-08T01:11:35;45509.63;;;-146.17;100.00
52625;BME280;38519;52.540;13.410;2023-08-08T01:14:02;45509.63;;;-146.17;100.00
52625;BME280;38519;52.540;13.410;2023-08-08T01:16:27;45478.00;;;-146.17;100.00
52625;BME280;38519;52.540;13.410;2023-08-08T01:18:53;45483.91;;;-146.17;100.00
52625;BME280;38519;52.540;13.410;2023-08-08T01:21:20;45470.09;;;-146.17;100.00
52625;BME280;38519;52.540;13.410;2023-08-08T01:24:31;45489.84;;;-146.17;100.00
52625;BME280;38519;52.540;13.410;2023-08-08T01:26:31;45493.81;;;-146.17;100.00
52625;BME280;38519;52.540;13.410;2023-08-08T01:28:57;45478.00;;;-146.17;100.00
52625;BME280;38519;52.540;13.410;2023-08-08T01:31:22;45479.97;;;-146.17;100.00
52625;BME280;38519;52.540;13.410;2023-08-08T01:33:47;45481.94;;;-146.17;100.00
52625;BME280;38519;52.540;13.410;2023-08-08T01:36:27;45499.72;;;-146.17;100.00
52625;BME280;38519;52.540;13.410;2023-08-08T01:38:54;45497.75;;;-146.17;100.00
52625;BME280;38519;52.540;13.410;2023-08-08T01:41:21;45468.09;;;-146.17;100.00
52625;BME280;38519;52.540;13.410;2023-08-08T01:43:46;45489.84;;;-146.17;100.00
52625;BME280;38519;52.540;13.410;2023-08-08T01:46:12;45537.28;;;-146.17;100.00
52625;BME280;38519;52.540;13.410;2023-08-08T01:48:38;45468.09;;;-146.17;100.00
52625;BME280;38519;52.540;13.410;2023-08-08T01:51:03;45513.56;;;-146.17;100.00
52625;BME280;38519;52.540;13.410;2023-08-08T01:53:28;45505.66;;;-146.17;100.00
52625;BME280;38519;52.540;13.410;2023-08-08T01:55:53;45513.56;;;-146.17;100.00
52625;BME280;38519;52.540;13.410;2023-08-08T01:58:19;45509.63;;;-146.17;100.00
52625;BME280;38519;52.540;13.410;2023-08-08T02:00:44;45499.72;;;-146.17;100.00
52625;BME280;38519;52.540;13.410;2023-08-08T02:03:11;45479.97;;;-146.17;100.00
52625;BME280;38519;52.540;13.410;2023-08-08T02:05:37;45489.84;;;-146.17;100.00
52625;BME280;38519;52.540;13.410;2023-08-08T02:08:02;45501.72;;;-146.17;100.00
52625;BME280;38519;52.540;13.410;2023-08-08T02:10:28;45479.97;;;-146.17;100.00
52625;BME280;38519;52.540;13.410;2023-08-08T02:12:53;45497.75;;;-146.17;100.00
52625;BME280;38519;52.540;13.410;2023-08-08T02:15:19;45466.13;;;-146.17;100.00
52625;BME280;38519;52.540;13.410;2023-08-08T02:17:45;45505.66;;;-146.17;100.00
52625;BME280;38519;52.540;13.410;2023-08-08T02:23:13;45483.91;;;-146.17;100.00
52625;BME280;38519;52.540;13.410;2023-08-08T02:25:38;45501.72;;;-146.17;100.00
52625;BME280;38519;52.540;13.410;2023-08-08T02:28:04;45478.00;;;-146.17;100.00
52625;BME280;38519;52.540;13.410;2023-08-08T02:30:29;45497.75;;;-146.17;100.00
52625;BME280;38519;52.540;13.410;2023-08-08T02:32:54;45505.66;;;-146.17;100.00
52625;BME280;38519;52.540;13.410;2023-08-08T02:35:19;45476.00;;;-146.17;100.00
52625;BME280;38519;52.540;13.410;2023-08-08T02:37:45;45434.50;;;-146.17;100.00
52625;BME280;38519;52.540;13.410;2023-08-08T02:40:10;45483.91;;;-146.17;100.00
52625;BME280;38519;52.540;13.410;2023-08-08T02:42:35;45479.97;;;-146.17;100.00
52625;BME280;38519;52.540;13.410;2023-08-08T02:45:01;45483.91;;;-146.17;100.00
52625;BME280;38519;52.540;13.410;2023-08-08T02:47:26;45497.75;;;-146.17;100.00
52625;BME280;38519;52.540;13.410;2023-08-08T02:49:51;45507.63;;;-146.17;100.00
52625;BME280;38519;52.540;13.410;2023-08-08T02:52:16;45489.84;;;-146.17;100.00
52625;BME280;38519;52.540;13.410;2023-08-08T02:54:42;45491.81;;;-146.17;100.00
52625;BME280;38519;52.540;13.410;2023-08-08T02:57:07;45495.78;;;-146.17;100.00
52625;BME280;38519;52.540;13.410;2023-08-08T02:59:35;45497.75;;;-146.17;100.00
52625;BME280;38519;52.540;13.410;2023-08-08T03:02:01;45541.22;;;-146.17;100.00
52625;BME280;38519;52.540;13.410;2023-08-08T03:04:26;45454.28;;;-146.17;100.00
52625;BME280;38519;52.540;13.410;2023-08-08T03:06:51;45481.94;;;-146.17;100.00
52625;BME280;38519;52.540;13.410;2023-08-08T03:09:17;45493.81;;;-146.17;100.00
52625;BME280;38519;52.540;13.410;2023-08-08T03:11:42;45474.03;;;-146.17;100.00
52625;BME280;38519;52.540;13.410;2023-08-08T03:14:07;45507.63;;;-146.17;100.00
52625;BME280;38519;52.540;13.410;2023-08-08T03:16:34;45479.97;;;-146.17;100.00
52625;BME280;38519;52.540;13.410;2023-08-08T03:19:00;45487.88;;;-146.17;100.00
52625;BME280;38519;52.540;13.410;2023-08-08T03:21:25;45468.09;;;-146.17;100.00
52625;BME280;38519;52.540;13.410;2023-08-08T03:23:50;45476.00;;;-146.17;100.00
52625;BME280;38519;52.540;13.410;2023-08-08T03:26:16;45489.84;;;-146.17;100.00
52625;BME280;38519;52.540;13.410;2023-08-08T03:28:41;45479.97;;;-146.17;100.00
52625;BME280;38519;52.540;13.410;2023-08-08T03:31:06;45509.63;;;-146.17;100.00
52625;BME280;38519;52.540;13.410;2023-08-08T03:33:32;45525.41;;;-146.17;100.00
52625;BME280;38519;52.540;13.410;2023-08-08T03:35:57;45485.91;;;-146.17;100.00
52625;BME280;38519;52.540;13.410;2023-08-08T03:38:23;45485.91;;;-146.17;100.00
52625;BME280;38519;52.540;13.410;2023-08-08T03:40:48;45503.69;;;-146.17;100.00
52625;BME280;38519;52.540;13.410;2023-08-08T03:43:13;45523.44;;;-146.17;100.00
52625;BME280;38519;52.540;13.410;2023-08-08T03:45:38;45478.00;;;-146.17;100.00
52625;BME280;38519;52.540;13.410;2023-08-08T03:48:04;45478.00;;;-146.17;100.00
52625;BME280;38519;52.540;13.410;2023-08-08T03:50:29;45485.91;;;-146.17;100.00
52625;BME280;38519;52.540;13.410;2023-08-08T03:52:54;45474.03;;;-146.17;100.00
52625;BME280;38519;52.540;13.410;2023-08-08T03:55:19;45521.47;;;-146.17;100.00
52625;BME280;38519;52.540;13.410;2023-08-08T03:57:45;45501.72;;;-146.17;100.00
52625;BME280;38519;52.540;13.410;2023-08-08T04:00:10;45472.06;;;-146.17;100.00
52625;BME280;38519;52.540;13.410;2023-08-08T04:02:36;45539.25;;;-146.17;100.00
52625;BME280;38519;52.540;13.410;2023-08-08T04:05:02;45495.78;;;-146.17;100.00
52625;BME280;38519;52.540;13.410;2023-08-08T04:07:27;45472.06;;;-146.17;100.00
52625;BME280;38519;52.540;13.410;2023-08-08T04:09:53;45472.06;;;-146.17;100.00
52625;BME280;38519;52.540;13.410;2023-08-08T04:12:18;45493.81;;;-146.17;100.00
52625;BME280;38519;52.540;13.410;2023-08-08T04:14:43;45501.72;;;-146.17;100.00
52625;BME280;38519;52.540;13.410;2023-08-08T04:17:08;45501.72;;;-146.17;100.00
52625;BME280;38519;52.540;13.410;2023-08-08T04:19:33;45519.50;;;-146.17;100.00
52625;BME280;38519;52.540;13.410;2023-08-08T04:21:59;45509.63;;;-146.17;100.00
52625;BME280;38519;52.540;13.410;2023-08-08T04:24:24;45491.81;;;-146.17;100.00
52625;BME280;38519;52.540;13.410;2023-08-08T04:26:50;45495.78;;;-146.17;100.00
52625;BME280;38519;52.540;13.410;2023-08-08T04:29:15;45479.97;;;-146.17;100.00
52625;BME280;38519;52.540;13.410;2023-08-08T04:31:40;45521.47;;;-146.17;100.00
52625;BME280;38519;52.540;13.410;2023-08-08T04:34:05;45470.09;;;-146.17;100.00
52625;BME280;38519;52.540;13.410;2023-08-08T04:36:31;45505.66;;;-146.17;100.00
52625;BME280;38519;52.540;13.410;2023-08-08T04:38:56;45495.78;;;-146.17;100.00
52625;BME280;38519;52.540;13.410;2023-08-08T04:41:21;45487.88;;;-146.17;100.00
52625;BME280;38519;52.540;13.410;2023-08-08T04:43:47;45478.00;;;-146.17;100.00
52625;BME280;38519;52.540;13.410;2023-08-08T04:46:12;45505.66;;;-146.17;100.00
52625;BME280;38519;52.540;13.410;2023-08-08T04:48:38;45489.84;;;-146.17;100.00
52625;BME280;38519;52.540;13.410;2023-08-08T04:51:06;45485.91;;;-146.17;100.00
52625;BME280;38519;52.540;13.410;2023-08-08T04:53:32;45499.72;;;-146.17;100.00
52625;BME280;38519;52.540;13.410;2023-08-08T04:55:58;45476.00;;;-146.17;100.00
52625;BME280;38519;52.540;13.410;2023-08-08T04:58:23;45521.47;;;-146.17;100.00
52625;BME280;38519;52.540;13.410;2023-08-08T05:00:48;45521.47;;;-146.17;100.00
52625;BME280;38519;52.540;13.410;2023-08-08T05:03:15;45474.03;;;-146.17;100.00
52625;BME280;38519;52.540;13.410;2023-08-08T05:05:40;45505.66;;;-146.17;100.00
52625;BME280;38519;52.540;13.410;2023-08-08T05:08:06;45513.56;;;-146.17;100.00
52625;BME280;38519;52.540;13.410;2023-08-08T05:10:31;45489.84;;;-146.17;100.00
52625;BME280;38519;52.540;13.410;2023-08-08T05:12:57;45525.41;;;-146.17;100.00
52625;BME280;38519;52.540;13.410;2023-08-08T05:15:22;45493.81;;;-146.17;100.00
52625;BME280;38519;52.540;13.410;2023-08-08T05:17:49;45495.78;;;-146.17;100.00
52625;BME280;38519;52.540;13.410;2023-08-08T05:20:14;45507.63;;;-146.17;100.00
52625;BME280;38519;52.540;13.410;2023-08-08T05:22:41;45483.91;;;-146.17;100.00
52625;BME280;38519;52.540;13.410;2023-08-08T05:25:06;45481.94;;;-146.17;100.00
52625;BME280;38519;52.540;13.410;2023-08-08T05:27:31;45499.72;;;-146.17;100.00
52625;BME280;38519;52.540;13.410;2023-08-08T05:29:57;45489.84;;;-146.17;100.00
52625;BME280;38519;52.540;13.410;2023-08-08T05:32:22;45493.81;;;-146.17;100.00
52625;BME280;38519;52.540;13.410;2023-08-08T05:34:49;45489.84;;;-146.17;100.00
52625;BME280;38519;52.540;13.410;2023-08-08T05:37:14;45481.94;;;-146.17;100.00
52625;BME280;38519;52.540;13.410;2023-08-08T05:39:40;45478.00;;;-146.17;100.00
52625;BME280;38519;52.540;13.410;2023-08-08T05:42:05;45485.91;;;-146.17;100.00
52625;BME280;38519;52.540;13.410;2023-08-08T05:44:30;45468.09;;;-146.17;100.00
52625;BME280;38519;52.540;13.410;2023-08-08T05:46:56;45497.75;;;-146.17;100.00
52625;BME280;38519;52.540;13.410;2023-08-08T05:49:21;45470.09;;;-146.17;100.00
52625;BME280;38519;52.540;13.410;2023-08-08T05:51:46;45466.13;;;-146.17;100.00
52625;BME280;38519;52.540;13.410;2023-08-08T05:54:11;45495.78;;;-146.17;100.00
52625;BME280;38519;52.540;13.410;2023-08-08T05:56:37;45456.25;;;-146.17;100.00
52625;BME280;38519;52.540;13.410;2023-08-08T05:59:02;45499.72;;;-146.17;100.00
52625;BME280;38519;52.540;13.410;2023-08-08T06:01:28;45505.66;;;-146.17;100.00
52625;BME280;38519;52.540;13.410;2023-08-08T06:03:53;45452.31;;;-146.17;100.00
52625;BME280;38519;52.540;13.410;2023-08-08T06:06:18;45462.19;;;-146.17;100.00
52625;BME280;38519;52.540;13.410;2023-08-08T06:08:44;45458.22;;;-146.17;100.00
52625;BME280;38519;52.540;13.410;2023-08-08T06:11:09;45497.75;;;-146.17;100.00
52625;BME280;38519;52.540;13.410;2023-08-08T06:13:34;45487.88;;;-146.17;100.00
52625;BME280;38519;52.540;13.410;2023-08-08T06:15:59;45436.50;;;-146.17;100.00
52625;BME280;38519;52.540;13.410;2023-08-08T06:18:26;45466.13;;;-146.17;100.00
52625;BME280;38519;52.540;13.410;2023-08-08T06:20:51;45466.13;;;-146.17;100.00
52625;BME280;38519;52.540;13.410;2023-08-08T06:23:16;45456.25;;;-146.17;100.00
52625;BME280;38519;52.540;13.410;2023-08-08T06:25:42;45446.38;;;-146.17;100.00
52625;BME280;38519;52.540;13.410;2023-08-08T06:28:07;45458.22;;;-146.17;100.00
52625;BME280;38519;52.540;13.410;2023-08-08T06:30:32;45464.16;;;-146.17;100.00
52625;BME280;38519;52.540;13.410;2023-08-08T06:32:58;45440.44;;;-146.17;100.00
52625;BME280;38519;52.540;13.410;2023-08-08T06:35:23;45446.38;;;-146.17;100.00
52625;BME280;38519;52.540;13.410;2023-08-08T06:37:48;45474.03;;;-146.17;100.00
52625;BME280;38519;52.540;13.410;2023-08-08T06:40:13;45456.25;;;-146.17;100.00
52625;BME280;38519;52.540;13.410;2023-08-08T06:42:39;45474.03;;;-146.17;100.00
52625;BME280;38519;52.540;13.410;2023-08-08T06:45:05;45464.16;;;-146.17;100.00
52625;BME280;38519;52.540;13.410;2023-08-08T06:47:32;45432.53;;;-146.17;100.00
52625;BME280;38519;52.540;13.410;2023-08-08T06:49:57;45468.09;;;-146.17;100.00
52625;BME280;38519;52.540;13.410;2023-08-08T06:52:23;45438.47;;;-146.17;100.00
52625;BME280;38519;52.540;13.410;2023-08-08T06:54:48;45466.13;;;-146.17;100.00
52625;BME280;38519;52.540;13.410;2023-08-08T06:57:13;45454.28;;;-146.17;100.00
52625;BME280;38519;52.540;13.410;2023-08-08T06:59:39;45454.28;;;-146.17;100.00
52625;BME280;38519;52.540;13.410;2023-08-08T07:02:04;45436.50;;;-146.17;100.00
52625;BME280;38519;52.540;13.410;2023-08-08T07:04:31;45454.28;;;-146.17;100.00
52625;BME280;38519;52.540;13.410;2023-08-08T07:06:57;45440.44;;;-146.17;100.00
52625;BME280;38519;52.540;13.410;2023-08-08T07:09:22;45430.56;;;-146.17;100.00
52625;BME280;38519;52.540;13.410;2023-08-08T07:11:47;45430.56;;;-146.17;100.00
52625;BME280;38519;52.540;13.410;2023-08-08T07:14:13;45430.56;;;-146.17;100.00
52625;BME280;38519;52.540;13.410;2023-08-08T07:16:38;45448.34;;;-146.17;100.00
52625;BME280;38519;52.540;13.410;2023-08-08T07:19:03;45424.63;;;-146.17;100.00
52625;BME280;38519;52.540;13.410;2023-08-08T07:21:28;45432.53;;;-146.17;100.00
52625;BME280;38519;52.540;13.410;2023-08-08T07:23:54;45440.44;;;-146.17;100.00
52625;BME280;38519;52.540;13.410;2023-08-08T07:26:19;45418.69;;;-146.17;100.00
52625;BME280;38519;52.540;13.410;2023-08-08T07:28:45;45430.56;;;-146.17;100.00
52625;BME280;38519;52.540;13.410;2023-08-08T07:31:10;45456.25;;;-146.17;100.00
52625;BME280;38519;52.540;13.410;2023-08-08T07:33:35;45432.53;;;-146.17;100.00
52625;BME280;38519;52.540;13.410;2023-08-08T07:36:01;45462.19;;;-146.17;100.00
52625;BME280;38519;52.540;13.410;2023-08-08T07:38:26;45424.63;;;-146.17;100.00
52625;BME280;38519;52.540;13.410;2023-08-08T07:40:51;45442.41;;;-146.17;100.00
52625;BME280;38519;52.540;13.410;2023-08-08T07:43:17;45418.69;;;-146.17;100.00
52625;BME280;38519;52.540;13.410;2023-08-08T07:45:42;45434.50;;;-146.17;100.00
52625;BME280;38519;52.540;13.410;2023-08-08T07:48:07;45406.84;;;-146.17;100.00
52625;BME280;38519;52.540;13.410;2023-08-08T07:50:33;45434.50;;;-146.17;100.00
52625;BME280;38519;52.540;13.410;2023-08-08T07:52:58;45418.69;;;-146.17;100.00
52625;BME280;38519;52.540;13.410;2023-08-08T07:55:23;45418.69;;;-146.17;100.00
52625;BME280;38519;52.540;13.410;2023-08-08T07:57:50;45410.78;;;-146.17;100.00
52625;BME280;38519;52.540;13.410;2023-08-08T08:00:15;45462.19;;;-146.17;100.00
52625;BME280;38519;52.540;13.410;2023-08-08T08:02:43;45440.44;;;-146.17;100.00
52625;BME280;38519;52.540;13.410;2023-08-08T08:05:10;45438.47;;;-146.17;100.00
52625;BME280;38519;52.540;13.410;2023-08-08T08:07:36;45462.19;;;-146.17;100.00
52625;BME280;38519;52.540;13.410;2023-08-08T08:10:03;45410.78;;;-146.17;100.00
52625;BME280;38519;52.540;13.410;2023-08-08T08:12:29;45428.59;;;-146.17;100.00
52625;BME280;38519;52.540;13.410;2023-08-08T08:14:55;45434.50;;;-146.17;100.00
52625;BME280;38519;52.540;13.410;2023-08-08T08:17:20;45420.69;;;-146.17;100.00
52625;BME280;38519;52.540;13.410;2023-08-08T08:19:45;45408.81;;;-146.17;100.00
52625;BME280;38519;52.540;13.410;2023-08-08T08:22:10;45412.78;;;-146.17;100.00
52625;BME280;38519;52.540;13.410;2023-08-08T08:24:36;45389.06;;;-146.17;100.00
52625;BME280;38519;52.540;13.410;2023-08-08T08:27:01;45422.66;;;-146.17;100.00
52625;BME280;38519;52.540;13.410;2023-08-08T08:29:26;45369.28;;;-146.17;100.00
52625;BME280;38519;52.540;13.410;2023-08-08T08:31:52;45391.03;;;-146.17;100.00
52625;BME280;38519;52.540;13.410;2023-08-08T08:34:17;45422.66;;;-146.17;100.00
52625;BME280;38519;52.540;13.410;2023-08-08T08:36:42;45406.84;;;-146.17;100.00
52625;BME280;38519;52.540;13.410;2023-08-08T08:39:08;45359.41;;;-146.17;100.00
52625;BME280;38519;52.540;13.410;2023-08-08T08:41:33;45361.38;;;-146.17;100.00
52625;BME280;38519;52.540;13.410;2023-08-08T08:44:00;45420.69;;;-146.17;100.00
52625;BME280;38519;52.540;13.410;2023-08-08T08:46:26;45402.88;;;-146.17;100.00
52625;BME280;38519;52.540;13.410;2023-08-08T08:48:52;45371.28;;;-146.17;100.00
52625;BME280;38519;52.540;13.410;2023-08-08T08:51:20;45391.03;;;-146.17;99.96
52625;BME280;38519;52.540;13.410;2023-08-08T08:53:46;45404.88;;;-146.17;100.00
52625;BME280;38519;52.540;13.410;2023-08-08T08:56:14;45387.09;;;-146.17;99.50
52625;BME280;38519;52.540;13.410;2023-08-08T08:58:42;45396.97;;;-146.17;99.76
52625;BME280;38519;52.540;13.410;2023-08-08T09:01:07;45351.50;;;-146.17;99.88
52625;BME280;38519;52.540;13.410;2023-08-08T09:03:33;45377.19;;;-146.17;99.41
52625;BME280;38519;52.540;13.410;2023-08-08T09:05:59;45383.13;;;-146.17;99.35
52625;BME280;38519;52.540;13.410;2023-08-08T09:08:24;45383.13;;;-146.17;99.75
52625;BME280;38519;52.540;13.410;2023-08-08T09:10:50;45377.19;;;-146.17;99.48
52625;BME280;38519;52.540;13.410;2023-08-08T09:13:16;45363.38;;;-146.17;98.87
52625;BME280;38519;52.540;13.410;2023-08-08T09:15:41;45387.09;;;-146.17;100.00
52625;BME280;38519;52.540;13.410;2023-08-08T09:18:07;45373.25;;;-146.17;99.43
52625;BME280;38519;52.540;13.410;2023-08-08T09:20:32;45387.09;;;-146.17;100.00
52625;BME280;38519;52.540;13.410;2023-08-08T09:22:57;45375.22;;;-146.17;99.88
52625;BME280;38519;52.540;13.410;2023-08-08T09:25:23;45351.50;;;-146.17;99.99
52625;BME280;38519;52.540;13.410;2023-08-08T09:27:50;45371.28;;;-146.17;99.73
52625;BME280;38519;52.540;13.410;2023-08-08T09:30:17;45369.28;;;-146.17;99.67
52625;BME280;38519;52.540;13.410;2023-08-08T09:32:44;45367.31;;;-146.17;99.57
52625;BME280;38519;52.540;13.410;2023-08-08T09:35:10;45393.00;;;-146.17;99.97
52625;BME280;38519;52.540;13.410;2023-08-08T09:37:36;45391.03;;;-146.17;99.59
52625;BME280;38519;52.540;13.410;2023-08-08T09:40:02;45414.75;;;-146.17;99.05
52625;BME280;38519;52.540;13.410;2023-08-08T09:42:30;45369.28;;;-146.17;98.58
52625;BME280;38519;52.540;13.410;2023-08-08T09:44:58;45387.09;;;-146.17;98.04
52625;BME280;38519;52.540;13.410;2023-08-08T09:47:24;45394.97;;;-146.17;96.92
52625;BME280;38519;52.540;13.410;2023-08-08T09:49:49;45339.66;;;-146.17;97.27
52625;BME280;38519;52.540;13.410;2023-08-08T09:52:15;45351.50;;;-146.17;97.20
52625;BME280;38519;52.540;13.410;2023-08-08T09:54:41;45389.06;;;-146.17;97.35
52625;BME280;38519;52.540;13.410;2023-08-08T09:57:07;45379.19;;;-146.17;97.91
52625;BME280;38519;52.540;13.410;2023-08-08T09:59:32;45375.22;;;-146.17;98.64
52625;BME280;38519;52.540;13.410;2023-08-08T10:01:58;45418.69;;;-146.17;100.00
52625;BME280;38519;52.540;13.410;2023-08-08T10:04:24;45428.59;;;-146.17;100.00
52625;BME280;38519;52.540;13.410;2023-08-08T10:06:49;45404.88;;;-146.17;100.00
52625;BME280;38519;52.540;13.410;2023-08-08T10:09:14;45452.31;;;-146.17;100.00
52625;BME280;38519;52.540;13.410;2023-08-08T10:11:40;45448.34;;;-146.17;100.00
52625;BME280;38519;52.540;13.410;2023-08-08T10:14:07;45478.00;;;-146.17;100.00
52625;BME280;38519;52.540;13.410;2023-08-08T10:16:36;45420.69;;;-146.17;100.00
52625;BME280;38519;52.540;13.410;2023-08-08T10:19:03;45489.84;;;-146.17;100.00
52625;BME280;38519;52.540;13.410;2023-08-08T10:21:31;45430.56;;;-146.17;100.00
52625;BME280;38519;52.540;13.410;2023-08-08T10:24:04;45412.78;;;-146.17;100.00
52625;BME280;38519;52.540;13.410;2023-08-08T10:26:30;45450.31;;;-146.17;100.00
52625;BME280;38519;52.540;13.410;2023-08-08T10:28:56;45442.41;;;-146.17;100.00
52625;BME280;38519;52.540;13.410;2023-08-08T10:31:22;45389.06;;;-146.17;100.00
52625;BME280;38519;52.540;13.410;2023-08-08T10:33:47;45414.75;;;-146.17;100.00
52625;BME280;38519;52.540;13.410;2023-08-08T10:36:13;45430.56;;;-146.17;100.00
52625;BME280;38519;52.540;13.410;2023-08-08T10:38:43;45371.28;;;-146.17;100.00
52625;BME280;38519;52.540;13.410;2023-08-08T10:41:09;45359.41;;;-146.17;100.00
52625;BME280;38519;52.540;13.410;2023-08-08T10:43:35;45404.88;;;-146.17;100.00
52625;BME280;38519;52.540;13.410;2023-08-08T10:46:01;45440.44;;;-146.17;100.00
52625;BME280;38519;52.540;13.410;2023-08-08T10:48:27;45456.25;;;-146.17;100.00
52625;BME280;38519;52.540;13.410;2023-08-08T10:50:59;45462.19;;;-146.17;100.00
52625;BME280;38519;52.540;13.410;2023-08-08T10:53:25;45454.28;;;-146.17;100.00
52625;BME280;38519;52.540;13.410;2023-08-08T10:56:02;45412.78;;;-146.17;100.00
52625;BME280;38519;52.540;13.410;2023-08-08T10:58:37;45414.75;;;-146.17;100.00
52625;BME280;38519;52.540;13.410;2023-08-08T11:01:03;45430.56;;;-146.17;100.00
52625;BME280;38519;52.540;13.410;2023-08-08T11:03:34;45404.88;;;-146.17;100.00
52625;BME280;38519;52.540;13.410;2023-08-08T11:05:59;45393.00;;;-146.17;100.00
52625;BME280;38519;52.540;13.410;2023-08-08T11:08:25;45404.88;;;-146.17;100.00
52625;BME280;38519;52.540;13.410;2023-08-08T11:10:52;45383.13;;;-146.17;100.00
52625;BME280;38519;52.540;13.410;2023-08-08T11:13:18;45367.31;;;-146.17;99.67
52625;BME280;38519;52.540;13.410;2023-08-08T11:15:43;45345.56;;;-146.17;99.44
52625;BME280;38519;52.540;13.410;2023-08-08T11:18:09;45373.25;;;-146.17;99.81
52625;BME280;38519;52.540;13.410;2023-08-08T11:20:35;45292.22;;;-146.17;98.60
52625;BME280;38519;52.540;13.410;2023-08-08T11:23:02;45339.66;;;-146.17;95.60
52625;BME280;38519;52.540;13.410;2023-08-08T11:25:29;45355.47;;;-146.17;96.14
52625;BME280;38519;52.540;13.410;2023-08-08T11:27:57;45347.56;;;-146.17;97.20
52625;BME280;38519;52.540;13.410;2023-08-08T11:30:23;45398.94;;;-146.17;98.36
52625;BME280;38519;52.540;13.410;2023-08-08T11:32:49;45369.28;;;-146.17;98.66
52625;BME280;38519;52.540;13.410;2023-08-08T11:35:20;45394.97;;;-146.17;95.00
52625;BME280;38519;52.540;13.410;2023-08-08T11:37:46;45391.03;;;-146.17;95.47
52625;BME280;38519;52.540;13.410;2023-08-08T11:40:12;45391.03;;;-146.17;95.22
52625;BME280;38519;52.540;13.410;2023-08-08T11:42:38;45387.09;;;-146.17;96.57
52625;BME280;38519;52.540;13.410;2023-08-08T11:45:04;45418.69;;;-146.17;97.27
52625;BME280;38519;52.540;13.410;2023-08-08T11:47:30;45420.69;;;-146.17;97.55
52625;BME280;38519;52.540;13.410;2023-08-08T11:50:00;45391.03;;;-146.17;98.47
52625;BME280;38519;52.540;13.410;2023-08-08T11:52:25;45365.34;;;-146.17;98.63
52625;BME280;38519;52.540;13.410;2023-08-08T11:54:52;45428.59;;;-146.17;99.04
52625;BME280;38519;52.540;13.410;2023-08-08T11:57:18;45383.13;;;-146.17;98.31
52625;BME280;38519;52.540;13.410;2023-08-08T11:59:43;45373.25;;;-146.17;97.46
52625;BME280;38519;52.540;13.410;2023-08-08T12:02:09;45383.13;;;-146.17;96.98
52625;BME280;38519;52.540;13.410;2023-08-08T12:04:34;45365.34;;;-146.17;96.04
52625;BME280;38519;52.540;13.410;2023-08-08T12:07:00;45351.50;;;-146.17;97.21
52625;BME280;38519;52.540;13.410;2023-08-08T12:09:28;45351.50;;;-146.17;96.71
52625;BME280;38519;52.540;13.410;2023-08-08T12:11:53;45276.41;;;-146.17;96.46
52625;BME280;38519;52.540;13.410;2023-08-08T12:14:20;45339.66;;;-146.17;96.65
52625;BME280;38519;52.540;13.410;2023-08-08T12:16:45;45343.59;;;-146.17;95.23
52625;BME280;38519;52.540;13.410;2023-08-08T12:19:10;45286.28;;;-146.17;95.35